sensor_id;sensor_type;location;lat;lon;timestamp;temperature;humidity
12817;DHT22;6473;51.552;6.716;2022-12-18T00:03:25;-6.50;99.90
12817;DHT22;6473;51.552;6.716;2022-12-18T00:08:19;-6.50;99.90
12817;DHT22;6473;51.552;6.716;2022-12-18T00:13:16;-6.40;99.90
12817;DHT22;6473;51.552;6.716;2022-12-18T00:20:38;-5.40;99.90
12817;DHT22;6473;51.552;6.716;2022-12-18T00:23:06;-5.20;99.90
12817;DHT22;6473;51.552;6.716;2022-12-18T00:25:34;-5.20;99.90
12817;DHT22;6473;51.552;6.716;2022-12-18T00:28:01;-5.10;99.90
12817;DHT22;6473;51.552;6.716;2022-12-18T00:30:30;-4.90;99.90
12817;DHT22;6473;51.552;6.716;2022-12-18T00:32:57;-4.90;99.90
12817;DHT22;6473;51.552;6.716;2022-12-18T00:45:22;-4.90;99.90
12817;DHT22;6473;51.552;6.716;2022-12-18T00:47:52;-4.90;99.90
12817;DHT22;6473;51.552;6.716;2022-12-18T00:50:20;-5.00;99.90
12817;DHT22;6473;51.552;6.716;2022-12-18T00:55:15;-5.30;99.90
12817;DHT22;6473;51.552;6.716;2022-12-18T01:00:14;-5.70;99.90
12817;DHT22;6473;51.552;6.716;2022-12-18T01:05:11;-5.80;99.90
12817;DHT22;6473;51.552;6.716;2022-12-18T01:10:08;-5.70;99.90
12817;DHT22;6473;51.552;6.716;2022-12-18T01:15:04;-5.60;99.90
12817;DHT22;6473;51.552;6.716;2022-12-18T01:17:31;-5.50;99.90
12817;DHT22;6473;51.552;6.716;2022-12-18T01:20:00;-4.00;99.90
12817;DHT22;6473;51.552;6.716;2022-12-18T01:22:28;-5.40;99.90
12817;DHT22;6473;51.552;6.716;2022-12-18T01:24:55;-5.40;99.90
12817;DHT22;6473;51.552;6.716;2022-12-18T01:27:22;-5.60;99.90
12817;DHT22;6473;51.552;6.716;2022-12-18T01:32:19;-5.80;99.90
12817;DHT22;6473;51.552;6.716;2022-12-18T01:34:46;-5.90;99.90
12817;DHT22;6473;51.552;6.716;2022-12-18T01:39:41;-6.10;99.90
12817;DHT22;6473;51.552;6.716;2022-12-18T01:42:11;-4.90;99.90
12817;DHT22;6473;51.552;6.716;2022-12-18T01:45:04;-6.20;99.90
12817;DHT22;6473;51.552;6.716;2022-12-18T01:47:35;-6.20;99.90
12817;DHT22;6473;51.552;6.716;2022-12-18T01:50:07;-6.30;99.90
12817;DHT22;6473;51.552;6.716;2022-12-18T01:55:05;-6.30;99.90
12817;DHT22;6473;51.552;6.716;2022-12-18T01:57:33;-6.30;99.90
12817;DHT22;6473;51.552;6.716;2022-12-18T02:00:04;-6.40;99.90
12817;DHT22;6473;51.552;6.716;2022-12-18T02:02:39;-6.40;99.90
12817;DHT22;6473;51.552;6.716;2022-12-18T02:05:07;-6.60;99.90
12817;DHT22;6473;51.552;6.716;2022-12-18T02:07:42;-6.60;99.90
12817;DHT22;6473;51.552;6.716;2022-12-18T02:10:17;-6.60;99.90
12817;DHT22;6473;51.552;6.716;2022-12-18T02:12:49;-6.60;99.90
12817;DHT22;6473;51.552;6.716;2022-12-18T02:15:24;-5.50;99.90
12817;DHT22;6473;51.552;6.716;2022-12-18T02:17:56;-6.60;99.90
12817;DHT22;6473;51.552;6.716;2022-12-18T02:20:28;-6.60;99.90
12817;DHT22;6473;51.552;6.716;2022-12-18T02:23:06;-6.60;99.90
12817;DHT22;6473;51.552;6.716;2022-12-18T02:28:41;-6.40;99.90
12817;DHT22;6473;51.552;6.716;2022-12-18T02:31:13;-6.30;99.90
12817;DHT22;6473;51.552;6.716;2022-12-18T02:33:42;-6.30;99.90
12817;DHT22;6473;51.552;6.716;2022-12-18T02:36:12;-6.30;99.90
12817;DHT22;6473;51.552;6.716;2022-12-18T02:38:42;-6.30;99.90
12817;DHT22;6473;51.552;6.716;2022-12-18T02:41:13;-6.50;99.90
12817;DHT22;6473;51.552;6.716;2022-12-18T02:43:46;-6.50;99.90
12817;DHT22;6473;51.552;6.716;2022-12-18T02:46:28;-6.60;99.90
12817;DHT22;6473;51.552;6.716;2022-12-18T02:49:06;-6.70;99.90
12817;DHT22;6473;51.552;6.716;2022-12-18T02:51:45;-6.80;99.90
12817;DHT22;6473;51.552;6.716;2022-12-18T02:54:21;-6.60;99.90
12817;DHT22;6473;51.552;6.716;2022-12-18T02:56:53;-6.80;99.90
12817;DHT22;6473;51.552;6.716;2022-12-18T02:59:29;-6.90;99.90
12817;DHT22;6473;51.552;6.716;2022-12-18T03:02:02;-6.90;99.90
12817;DHT22;6473;51.552;6.716;2022-12-18T03:04:38;-6.90;99.90
12817;DHT22;6473;51.552;6.716;2022-12-18T03:07:11;-6.90;99.90
12817;DHT22;6473;51.552;6.716;2022-12-18T03:09:46;-7.10;99.90
12817;DHT22;6473;51.552;6.716;2022-12-18T03:12:16;-7.10;99.90
12817;DHT22;6473;51.552;6.716;2022-12-18T03:14:59;-7.20;99.90
12817;DHT22;6473;51.552;6.716;2022-12-18T03:17:30;-7.20;99.90
12817;DHT22;6473;51.552;6.716;2022-12-18T03:20:02;-7.20;99.90
12817;DHT22;6473;51.552;6.716;2022-12-18T03:22:33;-7.20;99.90
12817;DHT22;6473;51.552;6.716;2022-12-18T03:25:06;-7.20;99.90
12817;DHT22;6473;51.552;6.716;2022-12-18T03:27:40;-7.20;99.90
12817;DHT22;6473;51.552;6.716;2022-12-18T03:30:15;-7.20;99.90
12817;DHT22;6473;51.552;6.716;2022-12-18T03:32:48;-7.10;99.90
12817;DHT22;6473;51.552;6.716;2022-12-18T03:35:22;-7.10;99.90
12817;DHT22;6473;51.552;6.716;2022-12-18T03:37:52;-7.10;99.90
12817;DHT22;6473;51.552;6.716;2022-12-18T03:40:20;-7.00;99.90
12817;DHT22;6473;51.552;6.716;2022-12-18T03:42:54;-7.00;99.90
12817;DHT22;6473;51.552;6.716;2022-12-18T03:45:30;-7.00;99.90
12817;DHT22;6473;51.552;6.716;2022-12-18T03:48:02;-6.80;99.90
12817;DHT22;6473;51.552;6.716;2022-12-18T03:50:41;-6.90;99.90
12817;DHT22;6473;51.552;6.716;2022-12-18T03:53:17;-7.00;99.90
12817;DHT22;6473;51.552;6.716;2022-12-18T03:55:49;-7.00;99.90
12817;DHT22;6473;51.552;6.716;2022-12-18T03:58:20;-7.00;99.90
12817;DHT22;6473;51.552;6.716;2022-12-18T04:01:08;-7.00;99.90
12817;DHT22;6473;51.552;6.716;2022-12-18T04:03:37;-7.00;99.90
12817;DHT22;6473;51.552;6.716;2022-12-18T04:06:07;-7.10;99.90
12817;DHT22;6473;51.552;6.716;2022-12-18T04:08:35;-7.10;99.90
12817;DHT22;6473;51.552;6.716;2022-12-18T04:13:35;-7.00;99.90
12817;DHT22;6473;51.552;6.716;2022-12-18T04:16:08;-7.00;99.90
12817;DHT22;6473;51.552;6.716;2022-12-18T04:18:39;-6.50;99.90
12817;DHT22;6473;51.552;6.716;2022-12-18T04:21:07;-6.30;99.90
12817;DHT22;6473;51.552;6.716;2022-12-18T04:31:13;-5.40;99.90
12817;DHT22;6473;51.552;6.716;2022-12-18T04:36:08;-5.40;99.90
12817;DHT22;6473;51.552;6.716;2022-12-18T04:38:35;-5.60;99.90
12817;DHT22;6473;51.552;6.716;2022-12-18T04:46:03;-6.00;99.90
12817;DHT22;6473;51.552;6.716;2022-12-18T04:48:31;-6.50;99.90
12817;DHT22;6473;51.552;6.716;2022-12-18T04:50:58;-6.50;99.90
12817;DHT22;6473;51.552;6.716;2022-12-18T04:56:03;-7.20;99.90
12817;DHT22;6473;51.552;6.716;2022-12-18T04:58:30;-7.30;99.90
12817;DHT22;6473;51.552;6.716;2022-12-18T05:05:53;-7.40;99.90
12817;DHT22;6473;51.552;6.716;2022-12-18T05:20:36;-7.40;99.90
12817;DHT22;6473;51.552;6.716;2022-12-18T05:23:05;-7.40;99.90
12817;DHT22;6473;51.552;6.716;2022-12-18T05:25:31;-7.40;99.90
12817;DHT22;6473;51.552;6.716;2022-12-18T05:32:53;-7.30;99.90
12817;DHT22;6473;51.552;6.716;2022-12-18T05:40:16;-7.30;99.90
12817;DHT22;6473;51.552;6.716;2022-12-18T05:42:43;-7.30;99.90
12817;DHT22;6473;51.552;6.716;2022-12-18T05:45:10;-7.40;99.90
12817;DHT22;6473;51.552;6.716;2022-12-18T05:50:05;-7.40;99.90
12817;DHT22;6473;51.552;6.716;2022-12-18T05:57:29;-7.40;99.90
12817;DHT22;6473;51.552;6.716;2022-12-18T05:59:56;-7.50;99.90
12817;DHT22;6473;51.552;6.716;2022-12-18T06:07:17;-7.50;99.90
12817;DHT22;6473;51.552;6.716;2022-12-18T06:14:40;-7.50;99.90
12817;DHT22;6473;51.552;6.716;2022-12-18T06:17:07;-7.50;99.90
12817;DHT22;6473;51.552;6.716;2022-12-18T06:22:01;-7.50;99.90
12817;DHT22;6473;51.552;6.716;2022-12-18T06:31:51;-7.80;99.90
12817;DHT22;6473;51.552;6.716;2022-12-18T06:34:18;-7.80;99.90
12817;DHT22;6473;51.552;6.716;2022-12-18T06:36:45;-7.80;99.90
12817;DHT22;6473;51.552;6.716;2022-12-18T06:39:12;-7.80;99.90
12817;DHT22;6473;51.552;6.716;2022-12-18T06:44:06;-7.90;99.90
12817;DHT22;6473;51.552;6.716;2022-12-18T06:49:02;-7.80;99.90
12817;DHT22;6473;51.552;6.716;2022-12-18T06:53:56;-7.90;99.90
12817;DHT22;6473;51.552;6.716;2022-12-18T07:01:17;-8.00;99.90
12817;DHT22;6473;51.552;6.716;2022-12-18T07:06:18;-8.00;99.90
12817;DHT22;6473;51.552;6.716;2022-12-18T07:08:45;-8.10;99.90
12817;DHT22;6473;51.552;6.716;2022-12-18T07:11:12;-8.10;99.90
12817;DHT22;6473;51.552;6.716;2022-12-18T07:16:08;-8.10;99.90
12817;DHT22;6473;51.552;6.716;2022-12-18T07:21:04;-8.10;99.90
12817;DHT22;6473;51.552;6.716;2022-12-18T07:23:34;-8.10;99.90
12817;DHT22;6473;51.552;6.716;2022-12-18T07:26:02;-8.00;99.90
12817;DHT22;6473;51.552;6.716;2022-12-18T07:33:24;-7.90;99.90
12817;DHT22;6473;51.552;6.716;2022-12-18T07:38:19;-8.00;99.90
12817;DHT22;6473;51.552;6.716;2022-12-18T07:40:47;-7.90;99.90
12817;DHT22;6473;51.552;6.716;2022-12-18T07:45:42;-8.00;99.90
12817;DHT22;6473;51.552;6.716;2022-12-18T07:50:37;-7.90;99.90
12817;DHT22;6473;51.552;6.716;2022-12-18T08:05:34;-7.70;99.90
12817;DHT22;6473;51.552;6.716;2022-12-18T08:22:08;-7.20;99.90
12817;DHT22;6473;51.552;6.716;2022-12-18T08:24:54;-7.20;99.90
12817;DHT22;6473;51.552;6.716;2022-12-18T09:56:54;-1.30;99.90
12817;DHT22;6473;51.552;6.716;2022-12-18T10:04:25;-1.50;99.90
12817;DHT22;6473;51.552;6.716;2022-12-18T10:07:01;-1.50;99.90
12817;DHT22;6473;51.552;6.716;2022-12-18T10:39:17;-0.70;99.90
12817;DHT22;6473;51.552;6.716;2022-12-18T10:47:33;-0.60;99.90
12817;DHT22;6473;51.552;6.716;2022-12-18T10:54:59;-0.40;99.90
12817;DHT22;6473;51.552;6.716;2022-12-18T10:57:33;1.70;99.90
12817;DHT22;6473;51.552;6.716;2022-12-18T11:00:21;-0.40;99.90
12817;DHT22;6473;51.552;6.716;2022-12-18T11:05:28;-0.80;99.90
12817;DHT22;6473;51.552;6.716;2022-12-18T11:07:56;-0.70;99.90
12817;DHT22;6473;51.552;6.716;2022-12-18T11:10:28;1.20;99.90
12817;DHT22;6473;51.552;6.716;2022-12-18T11:13:10;-0.50;99.90
12817;DHT22;6473;51.552;6.716;2022-12-18T11:15:40;-0.40;99.90
12817;DHT22;6473;51.552;6.716;2022-12-18T11:18:16;-0.30;99.90
12817;DHT22;6473;51.552;6.716;2022-12-18T11:20:50;-0.20;99.90
12817;DHT22;6473;51.552;6.716;2022-12-18T11:23:19;-0.10;99.90
12817;DHT22;6473;51.552;6.716;2022-12-18T11:25:55;0.10;99.90
12817;DHT22;6473;51.552;6.716;2022-12-18T11:28:35;0.20;99.90
12817;DHT22;6473;51.552;6.716;2022-12-18T11:31:22;0.40;99.90
12817;DHT22;6473;51.552;6.716;2022-12-18T11:34:00;0.40;99.90
12817;DHT22;6473;51.552;6.716;2022-12-18T11:36:31;0.40;99.90
12817;DHT22;6473;51.552;6.716;2022-12-18T11:39:08;0.40;99.90
12817;DHT22;6473;51.552;6.716;2022-12-18T11:41:45;0.40;90.80
12817;DHT22;6473;51.552;6.716;2022-12-18T11:44:38;0.60;84.80
12817;DHT22;6473;51.552;6.716;2022-12-18T11:47:12;0.80;78.20
12817;DHT22;6473;51.552;6.716;2022-12-18T11:52:14;1.00;50.40
12817;DHT22;6473;51.552;6.716;2022-12-18T11:57:19;1.10;41.00
12817;DHT22;6473;51.552;6.716;2022-12-18T11:59:55;1.20;40.90
12817;DHT22;6473;51.552;6.716;2022-12-18T12:02:39;1.30;37.30
12817;DHT22;6473;51.552;6.716;2022-12-18T12:08:05;1.40;17.60
12817;DHT22;6473;51.552;6.716;2022-12-18T12:10:46;1.50;21.30
12817;DHT22;6473;51.552;6.716;2022-12-18T12:13:32;1.50;21.80
12817;DHT22;6473;51.552;6.716;2022-12-18T12:16:11;1.50;11.20
12817;DHT22;6473;51.552;6.716;2022-12-18T12:18:52;1.60;14.90
12817;DHT22;6473;51.552;6.716;2022-12-18T12:21:27;1.60;11.90
12817;DHT22;6473;51.552;6.716;2022-12-18T12:24:15;1.70;9.50
12817;DHT22;6473;51.552;6.716;2022-12-18T12:26:52;1.70;14.90
12817;DHT22;6473;51.552;6.716;2022-12-18T12:36:46;1.70;12.00
12817;DHT22;6473;51.552;6.716;2022-12-18T12:39:20;1.70;13.50
12817;DHT22;6473;51.552;6.716;2022-12-18T12:41:53;1.70;16.70
12817;DHT22;6473;51.552;6.716;2022-12-18T12:44:43;1.70;15.30
12817;DHT22;6473;51.552;6.716;2022-12-18T12:47:15;0.00;9.50
12817;DHT22;6473;51.552;6.716;2022-12-18T12:52:16;1.70;1.20
12817;DHT22;6473;51.552;6.716;2022-12-18T12:54:44;1.70;9.00
12817;DHT22;6473;51.552;6.716;2022-12-18T12:57:15;1.60;8.10
12817;DHT22;6473;51.552;6.716;2022-12-18T12:59:57;1.60;4.90
12817;DHT22;6473;51.552;6.716;2022-12-18T13:02:32;1.60;1.00
12817;DHT22;6473;51.552;6.716;2022-12-18T13:05:03;1.60;1.00
12817;DHT22;6473;51.552;6.716;2022-12-18T13:07:37;1.60;1.00
12817;DHT22;6473;51.552;6.716;2022-12-18T13:10:25;1.60;1.00
12817;DHT22;6473;51.552;6.716;2022-12-18T13:12:55;1.60;3.60
12817;DHT22;6473;51.552;6.716;2022-12-18T13:15:26;1.60;5.90
12817;DHT22;6473;51.552;6.716;2022-12-18T13:18:05;1.60;1.20
12817;DHT22;6473;51.552;6.716;2022-12-18T13:20:37;1.60;1.00
12817;DHT22;6473;51.552;6.716;2022-12-18T13:23:25;1.60;1.00
12817;DHT22;6473;51.552;6.716;2022-12-18T13:25:53;1.50;1.10
12817;DHT22;6473;51.552;6.716;2022-12-18T13:28:21;1.50;2.40
12817;DHT22;6473;51.552;6.716;2022-12-18T13:30:55;1.40;3.80
12817;DHT22;6473;51.552;6.716;2022-12-18T13:33:50;1.50;7.10
12817;DHT22;6473;51.552;6.716;2022-12-18T13:36:28;1.40;4.40
12817;DHT22;6473;51.552;6.716;2022-12-18T13:39:22;1.40;9.30
12817;DHT22;6473;51.552;6.716;2022-12-18T13:41:50;1.40;8.80
12817;DHT22;6473;51.552;6.716;2022-12-18T13:44:25;1.40;10.80
12817;DHT22;6473;51.552;6.716;2022-12-18T13:46:54;1.40;8.30
12817;DHT22;6473;51.552;6.716;2022-12-18T13:49:23;1.20;8.30
12817;DHT22;6473;51.552;6.716;2022-12-18T13:51:52;1.40;7.50
12817;DHT22;6473;51.552;6.716;2022-12-18T13:54:25;1.20;5.40
12817;DHT22;6473;51.552;6.716;2022-12-18T13:59:23;1.30;1.70
12817;DHT22;6473;51.552;6.716;2022-12-18T14:01:54;1.30;2.70
12817;DHT22;6473;51.552;6.716;2022-12-18T14:04:24;1.30;3.50
12817;DHT22;6473;51.552;6.716;2022-12-18T14:06:55;1.30;2.50
12817;DHT22;6473;51.552;6.716;2022-12-18T14:09:25;1.30;1.00
12817;DHT22;6473;51.552;6.716;2022-12-18T14:11:53;1.30;1.40
12817;DHT22;6473;51.552;6.716;2022-12-18T14:14:44;1.30;2.10
12817;DHT22;6473;51.552;6.716;2022-12-18T14:17:15;1.30;6.70
12817;DHT22;6473;51.552;6.716;2022-12-18T14:19:43;1.20;1.80
12817;DHT22;6473;51.552;6.716;2022-12-18T14:22:17;1.30;3.40
12817;DHT22;6473;51.552;6.716;2022-12-18T14:24:46;1.20;5.50
12817;DHT22;6473;51.552;6.716;2022-12-18T14:27:22;1.20;3.80
12817;DHT22;6473;51.552;6.716;2022-12-18T14:32:19;1.20;2.40
12817;DHT22;6473;51.552;6.716;2022-12-18T14:34:48;1.20;3.00
12817;DHT22;6473;51.552;6.716;2022-12-18T14:37:17;1.20;4.80
12817;DHT22;6473;51.552;6.716;2022-12-18T14:39:54;1.20;7.40
12817;DHT22;6473;51.552;6.716;2022-12-18T14:47:56;1.00;6.80
12817;DHT22;6473;51.552;6.716;2022-12-18T14:55:18;1.10;5.00
12817;DHT22;6473;51.552;6.716;2022-12-18T14:57:49;1.10;6.10
12817;DHT22;6473;51.552;6.716;2022-12-18T15:00:18;1.10;1.00
12817;DHT22;6473;51.552;6.716;2022-12-18T15:02:47;1.10;2.70
12817;DHT22;6473;51.552;6.716;2022-12-18T15:05:21;1.10;1.00
12817;DHT22;6473;51.552;6.716;2022-12-18T15:07:52;1.10;1.60
12817;DHT22;6473;51.552;6.716;2022-12-18T15:10:20;1.10;1.00
12817;DHT22;6473;51.552;6.716;2022-12-18T15:12:49;1.00;1.00
12817;DHT22;6473;51.552;6.716;2022-12-18T15:15:47;1.10;1.00
12817;DHT22;6473;51.552;6.716;2022-12-18T15:18:16;1.10;2.60
12817;DHT22;6473;51.552;6.716;2022-12-18T15:20:49;1.00;1.70
12817;DHT22;6473;51.552;6.716;2022-12-18T15:23:21;1.10;1.00
12817;DHT22;6473;51.552;6.716;2022-12-18T15:25:56;1.00;2.20
12817;DHT22;6473;51.552;6.716;2022-12-18T15:28:25;1.00;1.00
12817;DHT22;6473;51.552;6.716;2022-12-18T15:31:01;1.10;1.00
12817;DHT22;6473;51.552;6.716;2022-12-18T15:33:32;1.10;1.00
12817;DHT22;6473;51.552;6.716;2022-12-18T15:36:03;1.10;1.00
12817;DHT22;6473;51.552;6.716;2022-12-18T15:43:26;1.00;2.10
12817;DHT22;6473;51.552;6.716;2022-12-18T15:46:02;1.00;5.70
12817;DHT22;6473;51.552;6.716;2022-12-18T15:50:57;1.00;5.10
12817;DHT22;6473;51.552;6.716;2022-12-18T15:53:29;1.00;6.70
12817;DHT22;6473;51.552;6.716;2022-12-18T16:01:09;0.90;10.90
12817;DHT22;6473;51.552;6.716;2022-12-18T16:08:33;0.90;14.40
12817;DHT22;6473;51.552;6.716;2022-12-18T16:25:45;1.00;21.30
12817;DHT22;6473;51.552;6.716;2022-12-18T16:33:08;0.90;27.20
12817;DHT22;6473;51.552;6.716;2022-12-18T16:38:09;0.80;31.20
12817;DHT22;6473;51.552;6.716;2022-12-18T16:40:37;0.80;32.70
12817;DHT22;6473;51.552;6.716;2022-12-18T16:43:36;0.80;37.70
12817;DHT22;6473;51.552;6.716;2022-12-18T16:53:14;0.70;47.70
12817;DHT22;6473;51.552;6.716;2022-12-18T17:00:37;0.70;52.50
12817;DHT22;6473;51.552;6.716;2022-12-18T17:03:05;0.70;54.20
12817;DHT22;6473;51.552;6.716;2022-12-18T17:05:53;0.50;55.60
12817;DHT22;6473;51.552;6.716;2022-12-18T17:15:43;0.60;64.40
12817;DHT22;6473;51.552;6.716;2022-12-18T17:20:38;0.60;67.90
12817;DHT22;6473;51.552;6.716;2022-12-18T17:25:47;0.50;73.10
12817;DHT22;6473;51.552;6.716;2022-12-18T17:35:13;0.50;82.50
12817;DHT22;6473;51.552;6.716;2022-12-18T17:42:57;0.40;88.70
12817;DHT22;6473;51.552;6.716;2022-12-18T17:50:26;0.40;90.70
12817;DHT22;6473;51.552;6.716;2022-12-18T18:03:54;0.30;92.80
12817;DHT22;6473;51.552;6.716;2022-12-18T18:09:34;0.30;94.20
12817;DHT22;6473;51.552;6.716;2022-12-18T18:22:09;0.30;95.80
12817;DHT22;6473;51.552;6.716;2022-12-18T18:24:38;0.30;95.90
12817;DHT22;6473;51.552;6.716;2022-12-18T18:34:28;0.30;94.70
12817;DHT22;6473;51.552;6.716;2022-12-18T18:36:59;0.30;94.60
12817;DHT22;6473;51.552;6.716;2022-12-18T18:43:21;0.30;94.30
12817;DHT22;6473;51.552;6.716;2022-12-18T19:05:30;0.30;95.10
12817;DHT22;6473;51.552;6.716;2022-12-18T19:15:39;0.30;94.90
12817;DHT22;6473;51.552;6.716;2022-12-18T19:32:54;0.20;98.50
12817;DHT22;6473;51.552;6.716;2022-12-18T19:35:21;0.20;98.60
12817;DHT22;6473;51.552;6.716;2022-12-18T19:42:42;0.30;97.30
12817;DHT22;6473;51.552;6.716;2022-12-18T19:50:08;0.30;96.40
12817;DHT22;6473;51.552;6.716;2022-12-18T19:55:03;0.30;96.50
12817;DHT22;6473;51.552;6.716;2022-12-18T19:57:31;0.30;96.90
12817;DHT22;6473;51.552;6.716;2022-12-18T19:59:58;0.30;97.80
12817;DHT22;6473;51.552;6.716;2022-12-18T20:02:25;0.30;96.90
12817;DHT22;6473;51.552;6.716;2022-12-18T20:04:52;0.30;97.20
12817;DHT22;6473;51.552;6.716;2022-12-18T20:07:20;1.60;98.10
12817;DHT22;6473;51.552;6.716;2022-12-18T20:09:47;0.40;98.30
12817;DHT22;6473;51.552;6.716;2022-12-18T20:17:09;0.40;97.10
12817;DHT22;6473;51.552;6.716;2022-12-18T20:19:36;0.50;97.40
12817;DHT22;6473;51.552;6.716;2022-12-18T20:22:03;0.40;96.80
12817;DHT22;6473;51.552;6.716;2022-12-18T20:24:31;0.40;97.20
12817;DHT22;6473;51.552;6.716;2022-12-18T20:26:58;0.40;96.50
12817;DHT22;6473;51.552;6.716;2022-12-18T20:29:25;0.40;96.90
12817;DHT22;6473;51.552;6.716;2022-12-18T20:39:14;0.50;97.40
12817;DHT22;6473;51.552;6.716;2022-12-18T20:41:43;0.50;97.30
12817;DHT22;6473;51.552;6.716;2022-12-18T20:44:12;0.50;98.00
12817;DHT22;6473;51.552;6.716;2022-12-18T20:46:39;0.40;98.20
12817;DHT22;6473;51.552;6.716;2022-12-18T20:49:06;0.50;97.70
12817;DHT22;6473;51.552;6.716;2022-12-18T20:51:33;0.50;97.70
12817;DHT22;6473;51.552;6.716;2022-12-18T20:54:00;0.50;99.00
12817;DHT22;6473;51.552;6.716;2022-12-18T20:58:57;0.40;99.90
12817;DHT22;6473;51.552;6.716;2022-12-18T21:01:26;0.40;99.90
12817;DHT22;6473;51.552;6.716;2022-12-18T21:03:53;0.50;99.90
12817;DHT22;6473;51.552;6.716;2022-12-18T21:06:22;0.40;99.60
12817;DHT22;6473;51.552;6.716;2022-12-18T21:11:25;0.40;99.10
12817;DHT22;6473;51.552;6.716;2022-12-18T21:14:09;0.50;99.60
12817;DHT22;6473;51.552;6.716;2022-12-18T21:16:37;0.50;99.10
12817;DHT22;6473;51.552;6.716;2022-12-18T21:26:27;0.50;99.90
12817;DHT22;6473;51.552;6.716;2022-12-18T21:28:56;0.50;99.90
12817;DHT22;6473;51.552;6.716;2022-12-18T21:31:29;0.60;98.50
12817;DHT22;6473;51.552;6.716;2022-12-18T21:33:57;2.00;99.80
12817;DHT22;6473;51.552;6.716;2022-12-18T21:36:24;0.50;99.90
12817;DHT22;6473;51.552;6.716;2022-12-18T21:38:51;0.60;99.90
12817;DHT22;6473;51.552;6.716;2022-12-18T21:41:19;1.50;99.90
12817;DHT22;6473;51.552;6.716;2022-12-18T21:44:04;0.60;99.90
12817;DHT22;6473;51.552;6.716;2022-12-18T21:46:34;0.60;99.90
12817;DHT22;6473;51.552;6.716;2022-12-18T21:49:02;0.70;99.90
12817;DHT22;6473;51.552;6.716;2022-12-18T21:51:30;0.60;99.90
12817;DHT22;6473;51.552;6.716;2022-12-18T21:53:57;0.60;99.90
12817;DHT22;6473;51.552;6.716;2022-12-18T21:56:24;0.60;99.90
12817;DHT22;6473;51.552;6.716;2022-12-18T21:59:07;0.60;99.90
12817;DHT22;6473;51.552;6.716;2022-12-18T22:01:36;0.60;99.90
12817;DHT22;6473;51.552;6.716;2022-12-18T22:08:57;0.50;99.90
12817;DHT22;6473;51.552;6.716;2022-12-18T22:13:51;0.50;99.90
12817;DHT22;6473;51.552;6.716;2022-12-18T22:16:18;3.00;99.90
12817;DHT22;6473;51.552;6.716;2022-12-18T22:18:47;0.40;99.90
12817;DHT22;6473;51.552;6.716;2022-12-18T22:21:21;0.40;99.90
12817;DHT22;6473;51.552;6.716;2022-12-18T22:23:53;0.40;99.90
12817;DHT22;6473;51.552;6.716;2022-12-18T22:26:21;2.30;99.90
12817;DHT22;6473;51.552;6.716;2022-12-18T22:28:48;0.50;99.90
12817;DHT22;6473;51.552;6.716;2022-12-18T22:31:32;0.40;99.90
12817;DHT22;6473;51.552;6.716;2022-12-18T22:34:01;0.40;99.90
12817;DHT22;6473;51.552;6.716;2022-12-18T22:36:34;0.50;99.90
12817;DHT22;6473;51.552;6.716;2022-12-18T22:39:02;0.50;99.90
12817;DHT22;6473;51.552;6.716;2022-12-18T22:41:29;0.50;99.90
12817;DHT22;6473;51.552;6.716;2022-12-18T22:43:56;0.50;99.90
12817;DHT22;6473;51.552;6.716;2022-12-18T22:46:24;0.50;99.90
12817;DHT22;6473;51.552;6.716;2022-12-18T22:48:52;0.50;99.90
12817;DHT22;6473;51.552;6.716;2022-12-18T22:51:20;0.50;99.90
12817;DHT22;6473;51.552;6.716;2022-12-18T22:53:47;0.50;99.90
12817;DHT22;6473;51.552;6.716;2022-12-18T22:56:14;0.60;99.90
12817;DHT22;6473;51.552;6.716;2022-12-18T22:58:41;0.50;99.90
12817;DHT22;6473;51.552;6.716;2022-12-18T23:01:17;0.50;99.90
12817;DHT22;6473;51.552;6.716;2022-12-18T23:03:44;1.30;99.90
12817;DHT22;6473;51.552;6.716;2022-12-18T23:08:40;0.40;99.90
12817;DHT22;6473;51.552;6.716;2022-12-18T23:16:04;0.50;99.90
12817;DHT22;6473;51.552;6.716;2022-12-18T23:18:31;1.00;99.90
12817;DHT22;6473;51.552;6.716;2022-12-18T23:21:02;0.40;99.90
12817;DHT22;6473;51.552;6.716;2022-12-18T23:23:32;0.50;99.90
12817;DHT22;6473;51.552;6.716;2022-12-18T23:26:02;0.50;99.90
12817;DHT22;6473;51.552;6.716;2022-12-18T23:28:31;1.50;99.90
12817;DHT22;6473;51.552;6.716;2022-12-18T23:31:03;0.60;99.90
12817;DHT22;6473;51.552;6.716;2022-12-18T23:33:30;0.60;99.90
12817;DHT22;6473;51.552;6.716;2022-12-18T23:35:58;0.60;99.90
12817;DHT22;6473;51.552;6.716;2022-12-18T23:38:27;0.60;99.90
12817;DHT22;6473;51.552;6.716;2022-12-18T23:40:54;0.60;99.90
12817;DHT22;6473;51.552;6.716;2022-12-18T23:43:23;0.60;99.90
12817;DHT22;6473;51.552;6.716;2022-12-18T23:45:50;2.60;99.90
12817;DHT22;6473;51.552;6.716;2022-12-18T23:48:17;0.70;99.90
12817;DHT22;6473;51.552;6.716;2022-12-18T23:53:12;0.70;99.90
12817;DHT22;6473;51.552;6.716;2022-12-18T23:55:40;0.80;99.90
12817;DHT22;6473;51.552;6.716;2022-12-18T23:58:15;0.80;99.90
